• Join FlightAware (Why Join?)
  • Login
  • US Flag 
03:32AM EDT


 

Airport Tracker/Info


-or-


 

Live Flight TrackerFlight Track Log ✈ QLK378D ✈ 08-Feb-2014 ✈ YBBN / BNE - YHBA / HVB

Flight Track Log - Related Links

Times and Time Zones

All times are in EST time to prevent confusion due to time zone crossing. See the QLK378D flight status page for this flight to view local times or setup timezone preferences in your user account.

Time Position Orientation Groundspeed Altitude Reporting Facility
EST Latitude Longitude Course Direction KTS MPH feet Rate Location/Type
12:33AM -27.3751 153.1340 24° Northeast 135 155 700  Level Aus ATC (RADAR)
12:34AM -27.3585 153.1423 24° Northeast 157 181 1,600 1,980 Climbing Aus ATC (RADAR)
12:34AM -27.3267 153.1387 354° North 189 217 2,700 2,460 Climbing Aus ATC (RADAR)
12:35AM -27.2803 153.1337 354° North 198 228 5,100 2,520 Climbing Aus ATC (RADAR)
12:36AM -27.2396 153.1310 357° North 217 250 6,500 2,040 Climbing Aus ATC (RADAR)
12:37AM -27.1930 153.1287 358° North 224 258 8,000 1,860 Climbing Aus ATC (RADAR)
12:37AM -27.1551 153.1261 357° North 233 268 9,000 1,800 Climbing Aus ATC (RADAR)
12:38AM -27.0878 153.1216 357° North 240 276 10,900 1,800 Climbing Aus ATC (RADAR)
12:39AM -27.0594 153.1194 356° North 244 281 11,600 1,680 Climbing Aus ATC (RADAR)
12:39AM -27.0195 153.1166 357° North 245 282 12,600 1,560 Climbing Aus ATC (RADAR)
12:40AM -26.9669 153.1135 357° North 253 291 13,700 1,080 Climbing Aus ATC (RADAR)
12:40AM -26.9240 153.1117 358° North 264 304 14,100 300 Climbing Aus ATC (RADAR)
12:41AM -26.8626 153.1075 357° North 298 343 14,100  Level Aus ATC (RADAR)
12:42AM -26.8260 153.1045 356° North 313 360 14,100  Level Aus ATC (RADAR)
12:42AM -26.7727 153.1008 356° North 328 377 14,100  Level Aus ATC (RADAR)
12:43AM -26.6870 153.0956 357° North 336 387 14,100  Level Aus ATC (RADAR)
12:44AM -26.6482 153.0928 356° North 336 387 14,100  Level Aus ATC (RADAR)
12:44AM -26.5870 153.0891 357° North 330 380 14,100  Level Aus ATC (RADAR)
12:45AM -26.5202 153.0776 351° North 323 372 14,100  Level Aus ATC (RADAR)
12:46AM -26.4702 153.0628 345° North 318 366 14,100  Level Aus ATC (RADAR)
12:46AM -26.4146 153.0395 339° North 317 365 14,100  Level Aus ATC (RADAR)
12:47AM -26.3796 153.0266 342° North 316 364 14,100  Level Aus ATC (RADAR)
12:47AM -26.3305 153.0088 342° North 317 365 14,100  Level Aus ATC (RADAR)
12:48AM -26.2463 152.9790 342° North 316 364 14,100  Level Aus ATC (RADAR)
12:49AM -26.2111 152.9665 342° North 317 365 14,100  Level Aus ATC (RADAR)
12:49AM -26.1620 152.9487 342° North 317 365 14,100  Level Aus ATC (RADAR)
12:50AM -26.0988 152.9261 342° North 317 365 14,100  Level Aus ATC (RADAR)
12:51AM -26.0497 152.9088 342° North 317 365 14,100  Level Aus ATC (RADAR)
12:51AM -25.9867 152.8863 342° North 317 365 14,100  Level Aus ATC (RADAR)
12:52AM -25.9513 152.8736 342° North 316 364 14,100  Level Aus ATC (RADAR)
12:52AM -25.9024 152.8569 343° North 313 360 14,100  Level Aus ATC (RADAR)
12:53AM -25.8182 152.8270 342° North 316 364 14,100  Level Aus ATC (RADAR)
12:54AM -25.7834 152.8148 342° North 314 361 14,100 -420 Level Aus ATC (RADAR)
12:54AM -25.7274 152.7948 342° North 316 364 13,700 -1,200 Descending Aus ATC (RADAR)
12:55AM -25.6624 152.7722 343° North 327 376 12,400 -1,740 Descending Aus ATC (RADAR)
12:56AM -25.6129 152.7549 342° North 319 367 11,400 -1,680 Descending Aus ATC (RADAR)
12:57AM -25.5483 152.7309 341° North 291 335 10,100 -1,620 Descending Aus ATC (RADAR)
12:57AM -25.5167 152.7201 343° North 287 330 9,400 -1,560 Descending Aus ATC (RADAR)
12:57AM -25.4807 152.7075 342° North 274 315 8,700 -1,380 Descending Aus ATC (RADAR)
12:58AM -25.4193 152.6863 343° North 249 287 7,500 -1,320 Descending Aus ATC (RADAR)
12:59AM -25.3926 152.6770 343° North 243 280 7,000 -1,380 Descending Aus ATC (RADAR)
12:59AM -25.3571 152.6638 341° North 233 268 6,200 -1,380 Descending Aus ATC (RADAR)
01:00AM -25.3370 152.6565 342° North 230 265 5,800 -1,200 Descending Aus ATC (RADAR)
01:03AM -25.3234 152.8244 85° East -1,920 Descending Aus ATC (Calculated)
01:05AM -25.3189 152.8803 169° South  Level Estimated
01:06AM -25.3189 152.8803 172° South  Level Estimated
01:07AM -25.3189 152.8803 172° South  Level Estimated
01:08AM -25.3189 152.8803 172° South  Level Estimated